Explora — IXWQ — position and weather

sailwx.info

Track history (hours):
 
Tides and Currents Weather Stations Pressure Air Temp Water Temp Dewpoint Dewpoint Depression Visibility Wind Speed Wind Dir Waves Ship Positions

Oceanographic research ship Explora (Italy)

Detailed information on ship capabilities available from University of Delaware's Ocean Information Center.

Last reported at 2014-Aug-25 01:33 UTC. Time now 2014-Aug-27 17:09 UTC.
Position N 36°33' E 023°21'.

Length 73 m; draft 5.5 m.

Type: Dredging. MMSI: 247028700.

Date/timePositionNaut miles runAvg speedWind from/ knotsBaromVisibWave heightAir tempDewpointWater temp
2014-Aug-25 01:33N 36°33' E 023°21'1411.7
2014-Aug-25 00:22N 36°44' E 023°31'911.5
2014-Aug-24 23:33N 36°51' E 023°38'1212.2
2014-Aug-24 22:33N 37°01' E 023°48'1211.8
2014-Aug-24 21:33N 37°10' E 023°57'1211.6
2014-Aug-24 20:33N 37°18' E 024°08'1111.5
2014-Aug-24 19:33N 37°26' E 024°18'1111.5
2014-Aug-24 18:33N 37°36' E 024°25'1110.6
2014-Aug-24 17:32N 37°46' E 024°30'1110.9
2014-Aug-24 16:31N 37°56' E 024°35'4811.7
2014-Aug-24 12:25N 38°40' E 025°00'1011.1
2014-Aug-24 11:33N 38°49' E 025°05'2611.5
2014-Aug-24 09:17N 39°13' E 025°19'3611.4
2014-Aug-24 06:05N 39°46' E 025°37'712.0
2014-Aug-24 05:31N 39°52' E 025°43'1212.4
2014-Aug-24 04:33N 39°59' E 025°55'3711.9
2014-Aug-24 01:27N 40°19' E 026°36'1211.3
2014-Aug-24 00:24N 40°27' E 026°47'  
Track history (hours):
 
Tides and Currents Weather Stations Pressure Air Temp Water Temp Dewpoint Dewpoint Depression Visibility Wind Speed Wind Dir Waves Ship Positions

Oceanographic research ship Explora (Italy)

Detailed information on ship capabilities available from University of Delaware's Ocean Information Center.

Last reported at 2014-Aug-25 01:33 UTC. Time now 2014-Aug-27 17:09 UTC.
Position N 36°33' E 023°21'.

Length 73 m; draft 5.5 m.

Type: Dredging. MMSI: 247028700.

Date/timePositionNaut miles runAvg speedWind from/ knotsBaromVisibWave heightAir tempDewpointWater temp
2014-Aug-25 01:33N 36°33' E 023°21'1411.7
2014-Aug-25 00:22N 36°44' E 023°31'911.5
2014-Aug-24 23:33N 36°51' E 023°38'1212.2
2014-Aug-24 22:33N 37°01' E 023°48'1211.8
2014-Aug-24 21:33N 37°10' E 023°57'1211.6
2014-Aug-24 20:33N 37°18' E 024°08'1111.5
2014-Aug-24 19:33N 37°26' E 024°18'1111.5
2014-Aug-24 18:33N 37°36' E 024°25'1110.6
2014-Aug-24 17:32N 37°46' E 024°30'1110.9
2014-Aug-24 16:31N 37°56' E 024°35'4811.7
2014-Aug-24 12:25N 38°40' E 025°00'1011.1
2014-Aug-24 11:33N 38°49' E 025°05'2611.5
2014-Aug-24 09:17N 39°13' E 025°19'3611.4
2014-Aug-24 06:05N 39°46' E 025°37'712.0
2014-Aug-24 05:31N 39°52' E 025°43'1212.4
2014-Aug-24 04:33N 39°59' E 025°55'3711.9
2014-Aug-24 01:27N 40°19' E 026°36'1211.3
2014-Aug-24 00:24N 40°27' E 026°47'  

Dump ship's entire track history